createdAt,value
2023-03-02T00:02:09.296Z,64.05
2023-03-02T00:04:41.105Z,67.97
2023-03-02T00:07:12.326Z,67.95
2023-03-02T00:09:43.240Z,68.50
2023-03-02T00:12:12.717Z,68.20
2023-03-02T00:14:43.582Z,72.63
2023-03-02T00:17:15.420Z,72.45
2023-03-02T00:19:45.086Z,70.47
2023-03-02T00:22:14.279Z,66.03
2023-03-02T00:24:43.457Z,71.50
2023-03-02T00:27:12.648Z,66.43
2023-03-02T00:29:44.010Z,69.75
2023-03-02T00:32:18.216Z,68.53
2023-03-02T00:34:47.137Z,71.40
2023-03-02T00:37:16.455Z,67.53
2023-03-02T00:39:46.100Z,50.72
2023-03-02T00:42:15.319Z,69.22
2023-03-02T00:44:45.882Z,67.25
2023-03-02T00:47:15.962Z,68.22
2023-03-02T00:49:48.973Z,68.50
2023-03-02T00:52:18.283Z,69.43
2023-03-02T00:54:50.157Z,54.37
2023-03-02T00:57:19.533Z,74.80
2023-03-02T00:59:50.368Z,66.43
2023-03-02T01:02:44.209Z,72.00
2023-03-02T01:05:17.486Z,71.10
2023-03-02T01:07:46.568Z,72.67
2023-03-02T01:10:16.427Z,67.73
2023-03-02T01:12:45.712Z,68.15
2023-03-02T01:15:16.542Z,69.85
2023-03-02T01:17:46.879Z,73.30
2023-03-02T01:20:16.416Z,73.03
2023-03-02T01:22:45.607Z,74.13
2023-03-02T01:25:15.132Z,71.78
2023-03-02T01:27:44.436Z,71.20
2023-03-02T01:30:15.932Z,51.22
2023-03-02T01:32:46.030Z,71.15
2023-03-02T01:35:15.657Z,73.35
2023-03-02T01:37:44.476Z,74.63
2023-03-02T01:40:16.061Z,73.10
2023-03-02T01:42:51.965Z,74.57
2023-03-02T01:45:53.544Z,75.00
2023-03-02T01:51:14.996Z,68.22
2023-03-02T01:53:47.990Z,67.85
2023-03-02T01:56:19.130Z,70.30
2023-03-02T01:58:51.300Z,69.63
2023-03-02T02:01:22.419Z,72.57
2023-03-02T02:03:52.449Z,73.95
2023-03-02T02:06:25.641Z,74.32
2023-03-02T02:08:56.418Z,78.97
2023-03-02T02:11:25.732Z,76.07
2023-03-02T02:13:57.268Z,71.32
2023-03-02T02:16:28.409Z,71.35
2023-03-02T02:18:57.569Z,65.63
2023-03-02T02:21:27.524Z,63.83
2023-03-02T02:24:04.590Z,55.65
2023-03-02T02:26:38.938Z,49.53
2023-03-02T02:29:12.518Z,46.63
2023-03-02T02:31:46.163Z,45.70
2023-03-02T02:34:23.046Z,46.47
2023-03-02T02:36:56.440Z,46.47
2023-03-02T02:39:30.340Z,47.10
2023-03-02T02:42:03.426Z,42.95
2023-03-02T02:44:32.967Z,43.55
2023-03-02T02:47:02.486Z,46.60
2023-03-02T02:49:34.420Z,43.97
2023-03-02T02:52:04.962Z,43.20
2023-03-02T02:54:35.441Z,41.33
2023-03-02T02:57:06.684Z,40.22
2023-03-02T02:59:40.002Z,40.20
2023-03-02T03:02:13.136Z,38.70
2023-03-02T03:04:42.090Z,36.90
2023-03-02T03:07:12.531Z,38.22
2023-03-02T03:09:41.964Z,35.38
2023-03-02T03:12:17.110Z,34.63
2023-03-02T03:14:46.418Z,35.00
2023-03-02T03:17:15.684Z,25.35
2023-03-02T03:19:51.675Z,34.22
2023-03-02T03:22:21.264Z,33.92
2023-03-02T03:24:52.229Z,36.20
2023-03-02T03:27:23.223Z,35.25
2023-03-02T03:29:52.889Z,35.70
2023-03-02T03:32:23.154Z,33.85
2023-03-02T03:34:55.593Z,34.60
2023-03-02T03:37:34.764Z,33.88
2023-03-02T03:40:05.879Z,35.42
2023-03-02T03:42:37.876Z,36.70
2023-03-02T03:45:08.693Z,34.65
2023-03-02T03:47:38.981Z,34.83
2023-03-02T03:50:11.281Z,36.72
2023-03-02T03:52:41.151Z,33.92
2023-03-02T03:55:19.401Z,35.00
2023-03-02T03:57:52.020Z,34.47
2023-03-02T04:00:22.085Z,33.22
2023-03-02T04:02:57.612Z,35.00
2023-03-02T04:05:30.694Z,33.67
2023-03-02T04:08:02.602Z,32.90
2023-03-02T04:10:32.849Z,33.60
2023-03-02T04:13:04.657Z,32.20
2023-03-02T04:15:34.104Z,33.45
2023-03-02T04:18:06.434Z,36.05
2023-03-02T04:20:37.267Z,32.90
2023-03-02T04:25:36.323Z,31.80
2023-03-02T04:28:12.226Z,32.95
2023-03-02T04:30:42.972Z,34.10
2023-03-02T04:33:12.318Z,32.70
2023-03-02T04:35:41.902Z,32.90
2023-03-02T04:38:11.082Z,34.85
2023-03-02T04:40:39.831Z,32.78
2023-03-02T04:43:09.020Z,31.73
2023-03-02T04:45:39.989Z,32.92
2023-03-02T04:48:09.165Z,32.97
2023-03-02T04:50:38.579Z,32.85
2023-03-02T04:53:07.651Z,31.03
2023-03-02T04:55:36.432Z,32.40
2023-03-02T04:58:05.551Z,32.75
2023-03-02T05:00:35.424Z,30.60
2023-03-02T05:03:06.709Z,30.63
2023-03-02T05:05:35.926Z,30.42
2023-03-02T05:08:05.357Z,30.48
2023-03-02T05:10:34.085Z,32.25
2023-03-02T05:13:05.283Z,31.75
2023-03-02T05:15:36.428Z,32.72
2023-03-02T05:18:09.266Z,30.20
2023-03-02T05:20:38.846Z,32.80
2023-03-02T05:23:10.395Z,24.55
2023-03-02T05:25:40.019Z,33.88
2023-03-02T05:28:10.211Z,31.27
2023-03-02T05:30:39.437Z,32.38
2023-03-02T05:33:10.098Z,25.42
2023-03-02T05:35:39.646Z,35.65
2023-03-02T05:38:08.735Z,35.30
2023-03-02T05:40:37.788Z,36.85
2023-03-02T05:43:07.449Z,40.35
2023-03-02T05:45:39.203Z,42.65
2023-03-02T05:48:11.732Z,40.90
2023-03-02T05:50:40.894Z,41.47
2023-03-02T05:53:10.108Z,41.75
2023-03-02T05:55:38.892Z,41.33
2023-03-02T05:58:09.248Z,39.95
2023-03-02T06:00:38.498Z,40.22
2023-03-02T06:03:08.076Z,38.60
2023-03-02T06:05:38.925Z,39.72
2023-03-02T06:08:08.379Z,46.15
2023-03-02T06:10:37.030Z,47.78
2023-03-02T06:13:06.250Z,46.97
2023-03-02T06:15:35.673Z,43.80
2023-03-02T06:18:04.959Z,28.15
2023-03-02T06:20:34.091Z,43.75
2023-03-02T06:23:04.893Z,45.93
2023-03-02T06:25:33.742Z,44.80
2023-03-02T06:28:02.836Z,44.22
2023-03-02T06:30:32.309Z,41.45
2023-03-02T06:33:01.859Z,44.80
2023-03-02T06:35:31.159Z,43.63
2023-03-02T06:38:00.429Z,44.77
2023-03-02T06:40:31.555Z,45.00
2023-03-02T06:43:03.860Z,43.75
2023-03-02T06:45:34.997Z,56.55
2023-03-02T06:48:07.214Z,53.67
2023-03-02T06:50:36.900Z,54.50
2023-03-02T06:53:06.421Z,52.70
2023-03-02T06:55:37.079Z,52.33
2023-03-02T06:58:06.348Z,52.55
2023-03-02T07:00:35.687Z,53.40
2023-03-02T07:03:04.923Z,36.67
2023-03-02T07:05:34.283Z,50.22
2023-03-02T07:08:03.817Z,50.85
2023-03-02T07:10:33.398Z,50.28
2023-03-02T07:13:04.348Z,49.42
2023-03-02T07:15:33.638Z,51.45
2023-03-02T07:18:02.754Z,50.55
2023-03-02T07:20:32.194Z,52.53
2023-03-02T07:23:01.690Z,52.30
2023-03-02T07:25:30.794Z,52.50
2023-03-02T07:28:00.701Z,51.10
2023-03-02T07:30:31.530Z,49.35
2023-03-02T07:33:00.925Z,48.00
2023-03-02T07:35:30.254Z,49.73
2023-03-02T07:37:59.532Z,46.42
2023-03-02T07:40:28.887Z,47.35
2023-03-02T07:42:58.354Z,46.77
2023-03-02T07:45:27.776Z,43.53
2023-03-02T07:47:58.556Z,39.97
2023-03-02T07:50:27.797Z,43.85
2023-03-02T07:52:58.548Z,42.33
2023-03-02T07:55:29.009Z,43.30
2023-03-02T07:57:58.469Z,44.08
2023-03-02T08:00:28.222Z,30.13
2023-03-02T08:02:58.851Z,39.65
2023-03-02T08:05:28.141Z,40.10
2023-03-02T08:07:57.894Z,41.28
2023-03-02T08:10:27.142Z,38.65
2023-03-02T08:12:57.646Z,39.72
2023-03-02T08:15:26.791Z,34.42
2023-03-02T08:17:56.058Z,36.38
2023-03-02T08:20:26.851Z,35.83
2023-03-02T08:22:55.631Z,33.55
2023-03-02T08:25:24.765Z,34.33
2023-03-02T08:27:53.921Z,31.02
2023-03-02T08:30:23.111Z,26.67
2023-03-02T08:32:52.277Z,23.98
2023-03-02T08:35:22.332Z,33.97
2023-03-02T08:37:52.591Z,35.22
2023-03-02T08:40:21.796Z,32.72
2023-03-02T08:42:57.031Z,32.30
2023-03-02T08:45:26.327Z,28.48
2023-03-02T08:47:55.806Z,23.98
2023-03-02T08:50:24.989Z,25.47
2023-03-02T08:52:55.205Z,28.02
2023-03-02T08:55:24.485Z,23.00
2023-03-02T08:57:56.893Z,21.58
2023-03-02T09:00:26.223Z,21.55
2023-03-02T09:02:55.355Z,20.77
2023-03-02T09:05:24.782Z,29.80
2023-03-02T09:07:55.224Z,36.08
2023-03-02T09:10:24.349Z,34.83
2023-03-02T09:12:53.396Z,31.20
2023-03-02T09:15:22.900Z,29.33
2023-03-02T09:17:52.086Z,26.73
2023-03-02T09:20:21.700Z,27.27
2023-03-02T09:22:51.002Z,24.42
2023-03-02T09:25:21.991Z,17.73
2023-03-02T09:27:51.281Z,15.40
2023-03-02T09:30:20.459Z,12.50
2023-03-02T09:32:50.349Z,12.13
2023-03-02T09:35:19.724Z,12.15
2023-03-02T09:37:48.554Z,13.07
2023-03-02T09:40:22.181Z,11.70
2023-03-02T09:43:08.133Z,12.60
2023-03-02T09:46:00.364Z,10.38
2023-03-02T09:48:38.912Z,12.98
2023-03-02T09:51:22.242Z,11.68
2023-03-02T09:53:55.128Z,14.07
2023-03-02T09:56:26.071Z,14.55
2023-03-02T09:59:00.417Z,14.23
2023-03-02T10:01:35.937Z,15.55
2023-03-02T10:04:12.939Z,14.07
2023-03-02T10:06:42.217Z,12.95
2023-03-02T10:09:12.201Z,10.63
2023-03-02T10:11:51.893Z,10.48
2023-03-02T10:14:26.083Z,10.80
2023-03-02T10:17:04.368Z,10.07
2023-03-02T10:19:41.817Z,9.27
2023-03-02T10:22:18.294Z,9.45
2023-03-02T10:24:52.809Z,12.23
2023-03-02T10:27:26.911Z,9.00
2023-03-02T10:30:00.781Z,8.85
2023-03-02T10:32:33.870Z,10.25
2023-03-02T10:35:07.569Z,8.88
2023-03-02T10:37:36.472Z,9.20
2023-03-02T10:40:06.038Z,8.10
2023-03-02T10:42:40.463Z,9.37
2023-03-02T10:45:22.779Z,10.15
2023-03-02T10:48:01.586Z,8.85
2023-03-02T10:50:31.905Z,8.75
2023-03-02T10:53:04.117Z,8.20
2023-03-02T10:55:34.974Z,8.30
2023-03-02T10:58:07.901Z,6.93
2023-03-02T11:00:37.432Z,6.82
2023-03-02T11:03:19.453Z,7.63
2023-03-02T11:05:48.619Z,7.65
2023-03-02T11:08:19.737Z,7.00
2023-03-02T11:10:57.054Z,7.72
2023-03-02T11:13:33.572Z,8.80
2023-03-02T11:16:03.917Z,9.02
2023-03-02T11:18:36.569Z,9.02
2023-03-02T11:21:09.964Z,10.25
2023-03-02T11:23:54.024Z,8.50
2023-03-02T11:26:25.544Z,10.10
2023-03-02T11:29:00.964Z,8.77
2023-03-02T11:31:35.567Z,8.23
2023-03-02T11:34:22.610Z,8.80
2023-03-02T11:37:03.758Z,8.95
2023-03-02T11:39:46.396Z,9.63
2023-03-02T11:42:22.320Z,9.98
2023-03-02T11:44:53.058Z,8.27
2023-03-02T11:47:22.795Z,10.15
2023-03-02T11:49:55.944Z,9.95
2023-03-02T11:52:27.883Z,10.25
2023-03-02T11:55:01.091Z,10.75
2023-03-02T11:57:32.825Z,10.25
2023-03-02T12:00:05.326Z,9.50
2023-03-02T12:02:41.591Z,11.13
2023-03-02T12:05:25.534Z,9.82
2023-03-02T12:08:01.738Z,9.55
2023-03-02T12:10:36.530Z,9.73
2023-03-02T12:13:16.180Z,10.18
2023-03-02T12:15:47.685Z,11.32
2023-03-02T12:18:46.320Z,10.45
2023-03-02T12:21:19.547Z,8.90
2023-03-02T12:24:04.990Z,11.43
2023-03-02T12:26:38.408Z,10.65
2023-03-02T12:29:24.101Z,11.18
2023-03-02T12:31:56.496Z,12.25
2023-03-02T12:34:37.174Z,12.40
2023-03-02T12:37:13.579Z,11.98
2023-03-02T12:40:02.966Z,14.68
2023-03-02T12:43:01.247Z,14.90
2023-03-02T12:45:39.779Z,13.85
2023-03-02T12:48:25.025Z,14.35
2023-03-02T12:50:57.602Z,13.25
2023-03-02T12:53:26.858Z,14.50
2023-03-02T12:55:56.708Z,14.80
2023-03-02T12:58:28.111Z,13.35
2023-03-02T13:00:59.563Z,15.50
2023-03-02T13:03:31.943Z,14.73
2023-03-02T13:06:05.225Z,13.75
2023-03-02T13:08:34.766Z,12.88
2023-03-02T13:11:04.386Z,14.65
2023-03-02T13:13:37.936Z,15.93
2023-03-02T13:16:08.658Z,15.82
2023-03-02T13:18:40.695Z,15.90
2023-03-02T13:21:12.823Z,13.95
2023-03-02T13:23:47.516Z,14.52
2023-03-02T13:26:26.968Z,14.98
2023-03-02T13:29:07.279Z,15.32
2023-03-02T13:31:36.859Z,15.77
2023-03-02T13:34:07.614Z,17.00
2023-03-02T13:36:39.329Z,13.93
2023-03-02T13:39:16.774Z,15.60
2023-03-02T13:41:54.395Z,15.05
2023-03-02T13:44:28.205Z,14.48
2023-03-02T13:46:57.293Z,15.93
2023-03-02T13:49:32.857Z,16.07
2023-03-02T13:52:07.750Z,16.10
2023-03-02T13:54:38.599Z,17.23
2023-03-02T13:57:08.117Z,16.17
2023-03-02T13:59:37.723Z,16.87
2023-03-02T14:02:20.867Z,15.45
2023-03-02T14:04:51.335Z,15.93
2023-03-02T14:07:20.941Z,15.65
2023-03-02T14:09:50.369Z,16.25
2023-03-02T14:12:24.741Z,15.48
2023-03-02T14:14:55.011Z,17.02
2023-03-02T14:17:25.866Z,16.15
2023-03-02T14:22:27.397Z,17.20
2023-03-02T14:24:56.658Z,18.15
2023-03-02T14:27:28.719Z,20.63
2023-03-02T14:29:57.840Z,21.27
2023-03-02T14:32:27.002Z,20.33
2023-03-02T14:34:57.207Z,19.90
2023-03-02T14:37:28.778Z,23.60
2023-03-02T14:39:58.354Z,21.83
2023-03-02T14:42:27.406Z,16.60
2023-03-02T14:44:56.610Z,24.55
2023-03-02T14:47:25.678Z,25.23
2023-03-02T14:49:54.760Z,22.90
2023-03-02T14:52:29.471Z,25.33
2023-03-02T14:55:00.832Z,23.77
2023-03-02T14:57:31.246Z,25.05
2023-03-02T15:02:30.021Z,21.65
2023-03-02T15:04:59.280Z,21.67
2023-03-02T15:07:30.373Z,21.13
2023-03-02T15:09:59.670Z,20.80
2023-03-02T15:12:28.945Z,21.17
2023-03-02T15:14:58.230Z,19.10
2023-03-02T15:17:27.364Z,17.98
2023-03-02T15:19:56.191Z,18.95
2023-03-02T15:22:25.390Z,19.45
2023-03-02T15:24:56.123Z,19.08
2023-03-02T15:27:25.361Z,18.13
2023-03-02T15:29:56.673Z,17.95
2023-03-02T15:32:26.746Z,17.70
2023-03-02T15:34:55.576Z,19.77
2023-03-02T15:37:24.849Z,19.35
2023-03-02T15:39:58.544Z,19.60
2023-03-02T15:42:27.728Z,19.92
2023-03-02T15:44:56.861Z,20.80
2023-03-02T15:47:26.141Z,21.70
2023-03-02T15:49:55.562Z,20.23
2023-03-02T15:52:24.692Z,19.95
2023-03-02T15:54:53.802Z,21.23
2023-03-02T15:57:24.445Z,22.42
2023-03-02T15:59:53.626Z,21.50
2023-03-02T16:02:22.865Z,20.52
2023-03-02T16:04:51.584Z,21.40
2023-03-02T16:07:20.559Z,19.77
2023-03-02T16:09:49.752Z,20.08
2023-03-02T16:12:20.543Z,20.40
2023-03-02T16:14:51.182Z,19.70
2023-03-02T16:17:20.636Z,21.02
2023-03-02T16:19:49.309Z,20.40
2023-03-02T16:22:18.409Z,21.08
2023-03-02T16:24:50.001Z,21.23
2023-03-02T16:27:19.165Z,19.33
2023-03-02T16:29:48.378Z,21.45
2023-03-02T16:32:18.960Z,22.83
2023-03-02T16:37:16.494Z,22.27
2023-03-02T16:39:45.580Z,21.45
2023-03-02T16:42:14.803Z,21.90
2023-03-02T16:44:46.025Z,22.23
2023-03-02T16:47:15.143Z,21.33
2023-03-02T16:49:45.289Z,22.42
2023-03-02T16:52:14.500Z,24.65
2023-03-02T16:54:43.731Z,24.30
2023-03-02T16:57:12.916Z,23.48
2023-03-02T16:59:43.072Z,26.05
2023-03-02T17:02:13.341Z,26.73
2023-03-02T17:04:44.813Z,26.35
2023-03-02T17:07:14.009Z,25.98
2023-03-02T17:09:43.204Z,24.52
2023-03-02T17:12:12.504Z,26.08
2023-03-02T17:14:41.640Z,25.67
2023-03-02T17:17:10.805Z,28.13
2023-03-02T17:19:39.553Z,26.83
2023-03-02T17:22:10.167Z,26.83
2023-03-02T17:24:39.323Z,29.20
2023-03-02T17:27:19.178Z,30.40
2023-03-02T17:29:53.365Z,33.00
2023-03-02T17:32:23.000Z,34.40
2023-03-02T17:34:51.816Z,37.10
2023-03-02T17:37:22.608Z,37.45
2023-03-02T17:39:51.907Z,39.03
2023-03-02T17:42:21.112Z,42.97
2023-03-02T17:44:50.199Z,44.00
2023-03-02T17:47:19.410Z,44.50
2023-03-02T17:52:19.329Z,45.35
2023-03-02T17:54:50.304Z,51.45
2023-03-02T17:57:22.766Z,48.92
2023-03-02T17:59:52.116Z,52.15
2023-03-02T18:02:21.230Z,53.15
2023-03-02T18:04:50.021Z,53.88
2023-03-02T18:07:19.226Z,53.55
2023-03-02T18:09:49.925Z,52.35
2023-03-02T18:12:19.191Z,54.03
2023-03-02T18:14:48.319Z,56.35
2023-03-02T18:17:20.112Z,59.95
2023-03-02T18:19:49.208Z,59.97
2023-03-02T18:22:18.251Z,63.80
2023-03-02T18:24:47.668Z,65.30
2023-03-02T18:27:19.480Z,65.68
2023-03-02T18:29:48.652Z,65.45
2023-03-02T18:32:17.741Z,62.97
2023-03-02T18:34:46.741Z,71.03
2023-03-02T18:37:15.950Z,69.47
2023-03-02T18:39:45.342Z,49.72
2023-03-02T18:42:14.523Z,66.23
2023-03-02T18:44:45.152Z,64.07
2023-03-02T18:47:18.018Z,68.88
2023-03-02T18:49:47.242Z,64.53
2023-03-02T18:52:16.728Z,65.38
2023-03-02T18:54:46.424Z,49.57
2023-03-02T18:57:15.815Z,68.65
2023-03-02T18:59:46.423Z,71.18
2023-03-02T19:02:15.869Z,68.68
2023-03-02T19:04:44.693Z,71.65
2023-03-02T19:07:13.827Z,73.07
2023-03-02T19:09:42.963Z,76.18
2023-03-02T19:12:12.286Z,76.00
2023-03-02T19:14:42.863Z,73.37
2023-03-02T19:17:13.858Z,76.85
2023-03-02T19:19:43.753Z,73.60
2023-03-02T19:22:13.348Z,68.60
2023-03-02T19:24:44.330Z,68.53
2023-03-02T19:27:13.673Z,62.15
2023-03-02T19:29:42.911Z,62.33
2023-03-02T19:32:15.110Z,63.67
2023-03-02T19:34:44.547Z,66.97
2023-03-02T19:37:13.647Z,66.63
2023-03-02T19:39:42.917Z,61.90
2023-03-02T19:42:12.203Z,62.83
2023-03-02T19:44:41.245Z,63.20
2023-03-02T19:47:10.291Z,64.22
2023-03-02T19:49:40.422Z,65.75
2023-03-02T19:52:09.620Z,71.80
2023-03-02T19:54:41.172Z,75.43
2023-03-02T19:57:13.012Z,79.03
2023-03-02T19:59:44.956Z,79.68
2023-03-02T20:02:17.265Z,77.72
2023-03-02T20:04:51.053Z,81.05
2023-03-02T20:07:20.517Z,82.93
2023-03-02T20:09:49.568Z,81.00
2023-03-02T20:12:19.932Z,81.43
2023-03-02T20:14:51.774Z,78.55
2023-03-02T20:17:21.194Z,86.32
2023-03-02T20:19:52.685Z,82.82
2023-03-02T20:22:21.911Z,83.95
2023-03-02T20:24:51.044Z,83.30
2023-03-02T20:27:21.298Z,82.00
2023-03-02T20:29:50.374Z,83.40
2023-03-02T20:32:19.601Z,85.47
2023-03-02T20:34:48.406Z,85.35
2023-03-02T20:37:19.783Z,88.05
2023-03-02T20:39:49.715Z,88.68
2023-03-02T20:42:18.828Z,85.43
2023-03-02T20:44:48.173Z,92.53
2023-03-02T20:47:18.112Z,90.97
2023-03-02T20:49:46.937Z,70.22
2023-03-02T20:52:16.295Z,95.22
2023-03-02T20:54:46.831Z,93.22
2023-03-02T20:57:17.833Z,96.18
2023-03-02T20:59:48.194Z,95.20
2023-03-02T21:02:19.582Z,94.95
2023-03-02T21:04:48.879Z,101.40
2023-03-02T21:07:18.091Z,99.13
2023-03-02T21:09:48.743Z,105.77
2023-03-02T21:12:17.922Z,103.07
2023-03-02T21:14:47.112Z,78.85
2023-03-02T21:17:16.633Z,96.38
2023-03-02T21:19:45.364Z,100.35
2023-03-02T21:22:14.503Z,101.10
2023-03-02T21:24:43.622Z,98.70
2023-03-02T21:27:14.283Z,76.18
2023-03-02T21:29:43.357Z,100.93
2023-03-02T21:32:12.604Z,99.88
2023-03-02T21:34:41.363Z,103.18
2023-03-02T21:37:10.444Z,108.25
2023-03-02T21:39:39.519Z,108.45
2023-03-02T21:42:08.699Z,103.28
2023-03-02T21:44:39.228Z,106.22
2023-03-02T21:47:08.307Z,102.35
2023-03-02T21:49:37.126Z,100.85
2023-03-02T21:52:07.915Z,103.07
2023-03-02T21:54:37.073Z,103.18
2023-03-02T21:57:08.368Z,103.90
2023-03-02T21:59:38.860Z,103.65
2023-03-02T22:02:08.088Z,105.60
2023-03-02T22:04:36.818Z,102.38
2023-03-02T22:07:05.957Z,106.82
2023-03-02T22:09:35.069Z,106.68
2023-03-02T22:12:09.060Z,90.28
2023-03-02T22:14:39.716Z,103.22
2023-03-02T22:17:16.608Z,104.85
2023-03-02T22:19:46.083Z,100.22
2023-03-02T22:22:19.005Z,101.25
2023-03-02T22:24:50.258Z,102.90
2023-03-02T22:27:24.331Z,101.53
2023-03-02T22:29:57.811Z,95.72
2023-03-02T22:32:28.965Z,105.40
2023-03-02T22:34:59.651Z,104.70
2023-03-02T22:37:30.320Z,99.65
2023-03-02T22:40:03.202Z,100.68
2023-03-02T22:42:34.749Z,97.25
2023-03-02T22:45:14.892Z,96.22
2023-03-02T22:47:44.501Z,103.25
2023-03-02T22:50:22.374Z,99.93
2023-03-02T22:52:51.144Z,97.55
2023-03-02T22:55:39.981Z,96.00
2023-03-02T22:58:42.705Z,100.68
2023-03-02T23:01:21.659Z,95.72
2023-03-02T23:03:52.721Z,92.32
2023-03-02T23:06:29.955Z,86.72
2023-03-02T23:09:01.261Z,90.38
2023-03-02T23:11:31.328Z,90.60
2023-03-02T23:16:35.782Z,78.70
2023-03-02T23:19:05.850Z,80.63
2023-03-02T23:21:39.178Z,73.85
2023-03-02T23:24:09.355Z,75.70
2023-03-02T23:29:07.600Z,74.65
2023-03-02T23:31:38.309Z,72.57
2023-03-02T23:34:07.518Z,74.35
2023-03-02T23:36:37.696Z,73.43
2023-03-02T23:41:36.649Z,71.50
2023-03-02T23:44:06.210Z,72.65
2023-03-02T23:46:35.352Z,71.88
2023-03-02T23:49:05.862Z,73.15
2023-03-02T23:51:35.245Z,75.80
2023-03-02T23:54:04.909Z,82.53
2023-03-02T23:56:34.137Z,78.80
2023-03-02T23:59:03.473Z,75.55
